Albuquerque, NM (87101)

6:09 PM MDT on March 25, 2017 (GMT -0600)
UNM Area West | | Change Station

Elev 5133 ft 35.09 °N, 106.63 °W | Updated 7 minutes ago

Partly Cloudy
Partly Cloudy
71.1 °F
Feels Like 73 °F
N
4.0
Wind Variable Wind from SSW
Gusts 10.0 mph

Today
High -- | Low -- °F
--% Chance of Precip.
Yesterday
High -- | Low -- °F
Precip. -- in
Pressure 29.67 in
Visibility 10.0 miles
Clouds Mostly Cloudy 14000 ft
Heat Index 73 °F
Dew Point 19 °F
Humidity 14%
Rainfall 0.00 in
Snow Depth Not available.
7:02 AM 7:22 PM
Waning Crescent, 6% visible
METAR KABQ 252352Z 17018G27KT 10SM BKN140 21/M09 A2982 RMK AO2 PK WND 17030/2327 SLP046 T02061094 10217 20150 56040
Pressure 29.67 in
Visibility 10.0 miles
Clouds Mostly Cloudy 14000 ft
Heat Index 73 °F
Dew Point 19 °F
Humidity 14%
Rainfall 0.00 in
Snow Depth Not available.
7:02 AM 7:22 PM
Waning Crescent, 6% visible
METAR KABQ 252352Z 17018G27KT 10SM BKN140 21/M09 A2982 RMK AO2 PK WND 17030/2327 SLP046 T02061094 10217 20150 56040

Get Severe Weather Alerts

Thanks for signing up!

Be on the lookout for a verification email in your inbox.

You'll start receiving the daily forecast at 8 AM.

×

10-Day Weather Forecast

Almanac

Astronomy

Mar. 25, 2017 Rise Set
Actual Time
Civil Twilight
Nautical Twilight
Astronomical Twilight
Moon
Length of Visible Light
Length of Day
Tomorrow will be .
, % of the Moon is Illuminated

Today's Extremes

State Highs State Lows

Community

WunderPhotos

Upload Photos

1,962,540 photos uploaded!

WunderBlog® & News

Nearby

Air Quality

  Air Quality AQ Index Pollutant
Not available.

Snow Depth

Station Depth Elevation

Earthquake Activity

City Distance Mag. Time & Date
Minimum magnitude displayed is 2.5.

Earthquake Activity

City Distance Mag. Time & Date
Minimum magnitude displayed is 2.5.

Coastal Water Temperatures

Place Temperature

Stations

Nearby Weather Stations

Station Location Temp. Windchill Dew Point Humidity Wind Precip. Elev Updated Type
                   

Watches & Warnings

There are currently no watches in effect.